Time;durP1;ratioP1;P1;durP2;ratioP2;P2;SDS_P1;SDS_P2;PMS_P1;PMS_P2;Temp;Humidity;BMP_temperature;BMP_pressure;BME280_temperature;BME280_humidity;BME280_pressure;Samples;Min_cycle;Max_cycle;Signal;HPM_P1;HPM_P2
2021/10/05 00:01:44;;;;;;;6.03;2.55;;;15.60;84.80;;;;;;4899486;29;20039;-66
2021/10/05 00:04:10;;;;;;;3.78;2.42;;;15.60;84.90;;;;;;4897504;29;20040;-66
2021/10/05 00:06:36;;;;;;;3.75;2.08;;;15.60;85.00;;;;;;4899681;29;20060;-66
2021/10/05 00:09:02;;;;;;;4.72;2.63;;;15.60;85.20;;;;;;4910671;29;20176;-66
2021/10/05 00:11:32;;;;;;;4.10;2.42;;;15.60;85.10;;;;;;4901545;29;20036;-66
2021/10/05 00:13:58;;;;;;;3.85;2.53;;;15.60;84.90;;;;;;4898110;29;20068;-66
2021/10/05 00:16:24;;;;;;;4.47;2.65;;;15.60;85.10;;;;;;4899816;29;20035;-66
2021/10/05 00:18:50;;;;;;;4.97;2.95;;;15.50;85.20;;;;;;4899362;29;20091;-66
2021/10/05 00:21:17;;;;;;;3.30;2.80;;;15.60;85.10;;;;;;4897524;29;20151;-66
2021/10/05 00:23:42;;;;;;;5.32;2.85;;;15.60;84.90;;;;;;4899821;29;20146;-66
2021/10/05 00:26:08;;;;;;;5.97;3.10;;;15.60;84.90;;;;;;4911968;29;20143;-66
2021/10/05 00:28:34;;;;;;;4.88;2.95;;;15.60;84.90;;;;;;4894598;29;20045;-66
2021/10/05 00:31:00;;;;;;;4.28;3.08;;;15.60;85.20;;;;;;4899906;29;20047;-66
2021/10/05 00:33:25;;;;;;;4.55;2.80;;;15.60;85.30;;;;;;4900770;29;20071;-66
2021/10/05 00:35:51;;;;;;;5.57;2.70;;;15.60;85.40;;;;;;4898282;29;20083;-66
2021/10/05 00:38:17;;;;;;;5.10;2.90;;;15.60;85.50;;;;;;4897042;29;20082;-66
2021/10/05 00:40:43;;;;;;;3.20;2.40;;;15.60;85.20;;;;;;4914596;29;20124;-66
2021/10/05 00:43:09;;;;;;;3.67;2.72;;;15.60;85.00;;;;;;4901922;29;20054;-66
2021/10/05 00:45:36;;;;;;;4.90;2.75;;;15.60;84.80;;;;;;4896481;29;20024;-66
2021/10/05 00:48:03;;;;;;;3.92;2.65;;;15.60;84.70;;;;;;4897152;29;20135;-66
2021/10/05 00:50:29;;;;;;;4.88;2.67;;;15.60;84.80;;;;;;4898811;29;20039;-66
2021/10/05 00:52:55;;;;;;;3.53;2.47;;;15.60;84.80;;;;;;4899382;29;20032;-66
2021/10/05 00:55:21;;;;;;;5.15;2.50;;;15.60;84.90;;;;;;4895354;29;20485;-66
2021/10/05 00:57:47;;;;;;;7.07;2.92;;;15.60;85.40;;;;;;4910894;29;20044;-66
2021/10/05 01:00:13;;;;;;;5.40;2.97;;;15.60;85.40;;;;;;4899011;29;20491;-66
2021/10/05 01:02:39;;;;;;;4.65;3.00;;;15.60;85.20;;;;;;4897794;29;20043;-66
2021/10/05 01:05:07;;;;;;;4.80;3.00;;;15.60;84.80;;;;;;4897321;29;20039;-66
2021/10/05 01:07:32;;;;;;;3.97;2.63;;;15.60;84.90;;;;;;4898250;29;20498;-66
2021/10/05 01:09:58;;;;;;;3.28;2.50;;;15.60;85.00;;;;;;4896805;29;20063;-66
2021/10/05 01:12:24;;;;;;;2.53;2.30;;;15.60;85.30;;;;;;4896781;29;20484;-66
2021/10/05 01:14:50;;;;;;;4.68;2.53;;;15.60;85.60;;;;;;4896604;29;20037;-66
2021/10/05 01:17:16;;;;;;;3.55;2.63;;;15.50;85.90;;;;;;4897258;29;20047;-66
2021/10/05 01:19:41;;;;;;;3.47;2.67;;;15.50;86.20;;;;;;4896856;29;20044;-66
2021/10/05 01:22:07;;;;;;;3.13;2.63;;;15.50;86.60;;;;;;4898319;29;20049;-66
2021/10/05 01:24:33;;;;;;;4.38;2.60;;;15.40;87.70;;;;;;4899674;29;20098;-66
2021/10/05 01:26:59;;;;;;;6.43;3.08;;;15.40;87.40;;;;;;4896564;29;20032;-66
2021/10/05 01:29:27;;;;;;;4.15;2.92;;;15.40;87.50;;;;;;4895854;29;20708;-66
2021/10/05 01:31:55;;;;;;;4.90;2.80;;;15.30;88.10;;;;;;4913037;29;20039;-66
2021/10/05 01:34:22;;;;;;;3.33;2.67;;;15.30;88.30;;;;;;4897276;29;20033;-66
2021/10/05 01:36:50;;;;;;;5.43;3.00;;;15.30;88.50;;;;;;4898962;29;20047;-66
2021/10/05 01:39:26;;;;;;;5.10;3.03;;;15.30;88.50;;;;;;4895723;29;20050;-66
2021/10/05 01:41:54;;;;;;;3.33;2.90;;;15.30;88.30;;;;;;4898015;29;20042;-66
2021/10/05 01:44:20;;;;;;;4.10;2.80;;;15.30;88.70;;;;;;4898785;29;20028;-66
2021/10/05 01:46:46;;;;;;;4.97;2.95;;;15.30;88.60;;;;;;4895513;29;20108;-66
2021/10/05 01:49:17;;;;;;;4.07;2.80;;;15.30;88.20;;;;;;4897978;29;20043;-66
2021/10/05 01:51:43;;;;;;;3.58;3.22;;;15.30;88.30;;;;;;4897859;29;20036;-66
2021/10/05 01:54:09;;;;;;;4.18;2.97;;;15.30;88.60;;;;;;4911072;29;20111;-66
2021/10/05 01:56:35;;;;;;;3.55;2.90;;;15.30;88.80;;;;;;4896867;29;20091;-66
2021/10/05 01:59:01;;;;;;;4.68;3.25;;;15.40;88.70;;;;;;4892782;29;20041;-66
2021/10/05 02:01:27;;;;;;;7.53;2.90;;;15.30;88.30;;;;;;4897445;29;20036;-66
2021/10/05 02:03:53;;;;;;;3.47;2.50;;;15.30;88.30;;;;;;4911073;29;20037;-66
2021/10/05 02:06:19;;;;;;;5.63;3.20;;;15.30;88.40;;;;;;4898956;29;20556;-66
2021/10/05 02:08:45;;;;;;;4.80;3.10;;;15.40;88.30;;;;;;4895531;29;20047;-67
2021/10/05 02:11:10;;;;;;;5.68;2.85;;;15.30;88.50;;;;;;4897101;29;20177;-66
2021/10/05 02:13:36;;;;;;;4.63;3.22;;;15.30;88.60;;;;;;4895299;29;20037;-66
2021/10/05 02:16:03;;;;;;;5.15;3.10;;;15.40;88.50;;;;;;4909152;29;20505;-66
2021/10/05 02:18:29;;;;;;;4.85;3.10;;;15.40;88.50;;;;;;4896104;29;20032;-66
2021/10/05 02:20:54;;;;;;;6.00;2.95;;;15.40;88.30;;;;;;4897975;29;20464;-66
2021/10/05 02:23:20;;;;;;;4.75;3.30;;;15.30;88.20;;;;;;4895416;29;20051;-66
2021/10/05 02:25:46;;;;;;;4.50;3.20;;;15.40;88.30;;;;;;4896816;29;20147;-66
2021/10/05 02:28:11;;;;;;;4.95;2.97;;;15.40;88.40;;;;;;4896905;29;20512;-66
2021/10/05 02:30:38;;;;;;;3.83;3.03;;;15.40;88.60;;;;;;4894245;29;20040;-66
2021/10/05 02:33:04;;;;;;;5.95;3.28;;;15.40;88.50;;;;;;4897873;29;20075;-66
2021/10/05 02:35:30;;;;;;;4.82;3.22;;;15.40;88.20;;;;;;4896238;29;20939;-66
2021/10/05 02:37:56;;;;;;;3.65;2.88;;;15.40;88.30;;;;;;4896498;29;20048;-66
2021/10/05 02:40:21;;;;;;;4.70;2.78;;;15.40;88.30;;;;;;4908969;29;20079;-66
2021/10/05 02:42:47;;;;;;;5.28;3.13;;;15.40;88.20;;;;;;4900568;29;20102;-66
2021/10/05 02:45:13;;;;;;;5.75;3.45;;;15.40;88.20;;;;;;4896900;29;20067;-66
2021/10/05 02:47:39;;;;;;;4.63;3.20;;;15.40;88.20;;;;;;4894331;29;20040;-66
2021/10/05 02:50:06;;;;;;;3.80;2.90;;;15.40;88.20;;;;;;4896488;29;20520;-66
2021/10/05 02:52:31;;;;;;;7.75;2.97;;;15.40;88.20;;;;;;4891578;29;20147;-66
2021/10/05 02:54:57;;;;;;;4.78;3.13;;;15.40;88.20;;;;;;4909001;29;20123;-66
2021/10/05 02:57:23;;;;;;;4.45;3.13;;;15.40;87.80;;;;;;4909544;29;20044;-66
2021/10/05 02:59:50;;;;;;;5.53;3.65;;;15.40;88.20;;;;;;4909574;29;20040;-66
2021/10/05 03:02:15;;;;;;;6.30;3.60;;;15.40;88.30;;;;;;4911393;29;20646;-66
2021/10/05 03:04:41;;;;;;;5.65;3.17;;;15.40;88.10;;;;;;4893639;29;20143;-66
2021/10/05 03:07:07;;;;;;;5.78;2.95;;;15.40;87.70;;;;;;4895880;29;20043;-66
2021/10/05 03:09:34;;;;;;;4.13;3.10;;;15.30;88.10;;;;;;4893492;29;20025;-66
2021/10/05 03:12:00;;;;;;;5.25;3.15;;;15.30;88.30;;;;;;4896571;29;20807;-66
2021/10/05 03:14:26;;;;;;;7.75;3.80;;;15.30;88.30;;;;;;4893911;29;20037;-66
2021/10/05 03:16:51;;;;;;;5.82;3.25;;;15.30;88.20;;;;;;4893064;29;20044;-66
2021/10/05 03:19:17;;;;;;;6.07;3.17;;;15.20;87.70;;;;;;4895072;29;20044;-66
2021/10/05 03:21:43;;;;;;;11.52;3.60;;;15.30;88.10;;;;;;4896246;29;20033;-66
2021/10/05 03:24:10;;;;;;;5.80;3.38;;;15.30;87.80;;;;;;4895264;29;20119;-66
2021/10/05 03:26:36;;;;;;;5.90;2.92;;;15.30;87.70;;;;;;4897336;29;20126;-66
2021/10/05 03:29:04;;;;;;;6.18;3.55;;;15.20;87.90;;;;;;4895244;29;20143;-66
2021/10/05 03:31:30;;;;;;;5.38;3.13;;;15.20;88.00;;;;;;4895219;29;20032;-66
2021/10/05 03:33:55;;;;;;;7.90;2.88;;;15.20;88.10;;;;;;4893174;29;20875;-66
2021/10/05 03:36:21;;;;;;;7.80;3.20;;;15.20;87.80;;;;;;4897244;29;20060;-66
2021/10/05 03:38:47;;;;;;;4.30;2.72;;;15.20;87.70;;;;;;4894904;29;20453;-66
2021/10/05 03:41:13;;;;;;;6.57;2.67;;;15.10;87.40;;;;;;4894232;29;20032;-66
2021/10/05 03:43:39;;;;;;;9.10;3.03;;;15.10;88.20;;;;;;4895098;29;20044;-66
2021/10/05 03:46:06;;;;;;;7.38;2.58;;;15.00;87.90;;;;;;4897605;29;20072;-66
2021/10/05 03:48:32;;;;;;;5.45;2.65;;;15.00;87.90;;;;;;4891777;29;20051;-66
2021/10/05 03:50:58;;;;;;;4.47;2.67;;;14.90;87.80;;;;;;4895834;29;20036;-66
2021/10/05 03:53:24;;;;;;;5.43;2.22;;;14.90;88.40;;;;;;4909520;29;20124;-66
2021/10/05 03:55:55;;;;;;;8.32;2.80;;;14.90;88.60;;;;;;4893787;29;20191;-66
2021/10/05 03:58:22;;;;;;;5.45;2.00;;;14.90;88.80;;;;;;4893427;29;20087;-66
2021/10/05 04:00:48;;;;;;;4.20;2.25;;;14.90;88.70;;;;;;4894536;29;20048;-66
2021/10/05 04:03:14;;;;;;;5.10;2.30;;;14.90;89.00;;;;;;4895842;29;20044;-66
2021/10/05 04:05:40;;;;;;;5.10;2.38;;;14.90;89.10;;;;;;4895647;29;20096;-66
2021/10/05 04:08:06;;;;;;;4.10;2.40;;;14.90;88.90;;;;;;4901637;29;20040;-66
2021/10/05 04:10:32;;;;;;;4.18;2.17;;;14.90;88.80;;;;;;4897195;29;20099;-66
2021/10/05 04:12:58;;;;;;;5.15;2.13;;;14.90;89.30;;;;;;4895000;29;20032;-66
2021/10/05 04:15:24;;;;;;;5.25;2.45;;;14.80;89.80;;;;;;4910703;29;20519;-66
2021/10/05 04:17:49;;;;;;;4.68;2.55;;;14.90;90.10;;;;;;4907925;29;20131;-66
2021/10/05 04:20:15;;;;;;;6.38;2.75;;;14.90;90.20;;;;;;4904659;29;20088;-66
2021/10/05 04:22:41;;;;;;;4.95;2.60;;;14.90;90.20;;;;;;4898822;29;20044;-66
2021/10/05 04:25:07;;;;;;;4.30;2.35;;;14.90;90.20;;;;;;4909564;29;20829;-66
2021/10/05 04:27:37;;;;;;;3.20;2.25;;;14.90;90.20;;;;;;4898366;29;20046;-66
2021/10/05 04:30:05;;;;;;;4.28;2.42;;;14.90;90.20;;;;;;4918373;29;20615;-66
2021/10/05 04:32:30;;;;;;;8.75;2.33;;;14.90;90.40;;;;;;4898644;29;20047;-66
2021/10/05 04:34:56;;;;;;;5.07;2.08;;;15.00;90.40;;;;;;4896526;29;20040;-66
2021/10/05 04:37:22;;;;;;;4.07;1.90;;;14.90;90.40;;;;;;4901251;29;20067;-66
2021/10/05 04:39:47;;;;;;;3.95;1.92;;;14.90;90.50;;;;;;4909546;29;20120;-66
2021/10/05 04:42:13;;;;;;;5.68;2.30;;;14.90;90.60;;;;;;4910252;29;20131;-66
2021/10/05 04:44:39;;;;;;;5.07;2.45;;;14.90;90.50;;;;;;4926644;29;20045;-66
2021/10/05 04:47:04;;;;;;;4.65;2.10;;;14.90;90.50;;;;;;4910118;29;20051;-66
2021/10/05 04:49:30;;;;;;;6.88;2.50;;;14.90;90.40;;;;;;4916840;29;20047;-66
2021/10/05 04:51:56;;;;;;;6.70;1.88;;;14.90;90.20;;;;;;4911127;29;20039;-66
2021/10/05 04:54:22;;;;;;;3.25;1.98;;;14.90;90.00;;;;;;4896468;29;20036;-66
2021/10/05 04:56:49;;;;;;;6.38;2.05;;;14.90;89.90;;;;;;4911995;29;20043;-66
2021/10/05 04:59:16;;;;;;;7.07;2.67;;;14.90;90.00;;;;;;4906705;29;20047;-66
2021/10/05 05:01:42;;;;;;;6.38;2.00;;;14.90;90.00;;;;;;4916694;29;20241;-66
2021/10/05 05:04:09;;;;;;;3.08;1.75;;;14.80;90.00;;;;;;4904050;29;20489;-66
2021/10/05 05:06:35;;;;;;;6.78;1.90;;;14.80;90.20;;;;;;4906333;29;20071;-66
2021/10/05 05:09:00;;;;;;;5.47;1.90;;;14.80;90.10;;;;;;4900737;29;20488;-66
2021/10/05 05:11:26;;;;;;;3.80;1.80;;;14.80;90.20;;;;;;4907489;29;20490;-66
2021/10/05 05:13:51;;;;;;;6.18;1.75;;;14.80;90.20;;;;;;4904251;29;20836;-66
2021/10/05 05:16:17;;;;;;;4.15;1.63;;;14.80;90.60;;;;;;4919919;29;20032;-67
2021/10/05 05:18:43;;;;;;;4.18;1.90;;;14.80;90.30;;;;;;4909944;29;20052;-67
2021/10/05 05:21:09;;;;;;;4.68;2.13;;;14.80;90.50;;;;;;4907287;29;20047;-68
2021/10/05 05:23:34;;;;;;;3.28;1.90;;;14.80;90.50;;;;;;4903141;29;20037;-68
2021/10/05 05:26:00;;;;;;;4.53;2.00;;;14.80;90.60;;;;;;4905328;29;20044;-67
2021/10/05 05:28:26;;;;;;;4.57;2.17;;;14.80;90.60;;;;;;4905862;29;20036;-68
2021/10/05 05:30:51;;;;;;;5.97;1.98;;;14.80;90.70;;;;;;4905189;29;20054;-68
2021/10/05 05:33:17;;;;;;;5.35;2.08;;;14.80;90.70;;;;;;4909794;29;20090;-68
2021/10/05 05:35:43;;;;;;;6.10;2.15;;;14.80;90.70;;;;;;4902332;29;20032;-69
2021/10/05 05:38:09;;;;;;;2.80;2.28;;;14.80;90.80;;;;;;4896845;29;20032;-67
2021/10/05 05:40:35;;;;;;;4.65;2.35;;;14.90;90.80;;;;;;4907199;29;20159;-66
2021/10/05 05:43:00;;;;;;;5.30;2.83;;;14.90;90.80;;;;;;4906942;29;20039;-63
2021/10/05 05:45:26;;;;;;;5.70;2.67;;;14.80;90.80;;;;;;4907003;29;20036;-68
2021/10/05 05:47:52;;;;;;;5.03;2.72;;;14.90;90.90;;;;;;4907988;29;20048;-65
2021/10/05 05:50:17;;;;;;;3.95;2.42;;;14.90;90.90;;;;;;4905473;29;20036;-64
2021/10/05 05:52:43;;;;;;;4.32;2.58;;;14.90;91.00;;;;;;4910450;29;20054;-64
2021/10/05 05:55:15;;;;;;;5.10;2.83;;;14.90;91.00;;;;;;4900908;29;20036;-65
2021/10/05 05:57:41;;;;;;;5.50;3.30;;;14.90;90.90;;;;;;4899493;29;20115;-65
2021/10/05 06:00:08;;;;;;;5.03;3.00;;;14.90;90.90;;;;;;4909514;29;20548;-64
2021/10/05 06:02:37;;;;;;;5.45;3.33;;;14.90;91.00;;;;;;4913844;29;20044;-65
2021/10/05 06:05:04;;;;;;;6.82;3.60;;;14.90;91.00;;;;;;4911913;29;20401;-64
2021/10/05 06:07:30;;;;;;;4.93;3.03;;;15.00;91.00;;;;;;4904842;29;20488;-65
2021/10/05 06:09:56;;;;;;;5.32;2.90;;;14.90;90.80;;;;;;4902479;29;20036;-64
2021/10/05 06:12:22;;;;;;;4.55;3.05;;;14.90;90.90;;;;;;4903973;29;20925;-66
2021/10/05 06:14:47;;;;;;;9.88;3.50;;;14.90;90.80;;;;;;4906072;29;20175;-65
2021/10/05 06:17:13;;;;;;;6.65;2.70;;;15.00;90.70;;;;;;4905360;29;20139;-65
2021/10/05 06:19:39;;;;;;;6.13;2.53;;;14.90;90.60;;;;;;4902750;29;20039;-66
2021/10/05 06:22:05;;;;;;;8.70;2.88;;;14.90;90.70;;;;;;4910874;29;20479;-65
2021/10/05 06:24:31;;;;;;;8.20;2.42;;;14.90;90.70;;;;;;4895115;29;20056;-64
2021/10/05 06:26:56;;;;;;;5.95;2.97;;;14.80;90.70;;;;;;4918109;28;20040;-64
2021/10/05 06:29:22;;;;;;;3.97;2.47;;;14.80;90.70;;;;;;4904677;29;20055;-64
2021/10/05 06:31:49;;;;;;;3.70;2.63;;;14.80;90.70;;;;;;4900549;29;20040;-64
2021/10/05 06:34:14;;;;;;;8.00;3.10;;;14.90;90.70;;;;;;4905866;29;20044;-65
2021/10/05 06:36:40;;;;;;;5.68;2.40;;;14.90;90.70;;;;;;4905636;29;20083;-65
2021/10/05 06:39:06;;;;;;;8.18;2.50;;;14.90;90.70;;;;;;4900710;29;20087;-65
2021/10/05 06:41:31;;;;;;;8.02;3.17;;;14.90;90.60;;;;;;4902526;29;20095;-65
2021/10/05 06:43:57;;;;;;;3.13;2.25;;;14.90;90.70;;;;;;4904484;29;20035;-65
2021/10/05 06:46:23;;;;;;;5.85;2.78;;;14.90;90.60;;;;;;4900567;29;20040;-65
2021/10/05 06:48:49;;;;;;;5.28;3.13;;;14.80;90.80;;;;;;4901717;29;20684;-65
2021/10/05 06:51:14;;;;;;;4.78;2.90;;;14.90;90.60;;;;;;4900998;29;20383;-65
2021/10/05 06:53:40;;;;;;;5.82;3.22;;;14.90;90.60;;;;;;4904772;29;20084;-65
2021/10/05 06:56:06;;;;;;;4.95;2.17;;;14.90;90.60;;;;;;4932986;29;20036;-65
2021/10/05 06:58:31;;;;;;;3.63;2.55;;;15.00;90.70;;;;;;4908894;29;20432;-66
2021/10/05 07:00:57;;;;;;;6.60;2.72;;;15.00;90.70;;;;;;4903719;29;20031;-65
2021/10/05 07:03:23;;;;;;;5.97;2.83;;;15.00;90.80;;;;;;4908930;29;20044;-65
2021/10/05 07:05:48;;;;;;;7.63;3.10;;;15.00;90.70;;;;;;4909266;29;20070;-64
2021/10/05 07:08:17;;;;;;;6.32;2.67;;;15.00;90.50;;;;;;4903396;29;20036;-64
2021/10/05 07:10:42;;;;;;;4.95;2.67;;;15.10;90.60;;;;;;4893734;29;20489;-64
2021/10/05 07:13:08;;;;;;;5.03;2.95;;;15.10;90.40;;;;;;4906599;29;20034;-64
2021/10/05 07:15:34;;;;;;;8.82;3.30;;;15.10;90.50;;;;;;4905561;29;20044;-64
2021/10/05 07:18:00;;;;;;;6.65;2.97;;;15.10;90.50;;;;;;4906157;29;20048;-64
2021/10/05 07:20:30;;;;;;;4.75;2.90;;;15.10;90.50;;;;;;4907743;29;20073;-64
2021/10/05 07:22:57;;;;;;;6.63;3.58;;;15.10;90.40;;;;;;4899222;29;20043;-64
2021/10/05 07:25:23;;;;;;;5.78;2.55;;;15.10;90.60;;;;;;4912037;29;20741;-64
2021/10/05 07:27:52;;;;;;;3.83;2.67;;;15.10;90.70;;;;;;4901062;29;20558;-64
2021/10/05 07:30:23;;;;;;;6.25;2.97;;;15.10;90.60;;;;;;4900596;29;20504;-65
2021/10/05 07:32:51;;;;;;;6.68;2.92;;;15.10;90.60;;;;;;4920659;29;20107;-65
2021/10/05 07:35:17;;;;;;;8.52;3.70;;;15.10;90.70;;;;;;4907738;29;20154;-65
2021/10/05 07:37:43;;;;;;;6.18;2.85;;;15.20;90.60;;;;;;4898662;29;20036;-64
2021/10/05 07:40:09;;;;;;;4.72;3.55;;;15.20;90.50;;;;;;4906942;29;20496;-65
2021/10/05 07:42:34;;;;;;;5.20;2.70;;;15.20;90.50;;;;;;4917186;29;20062;-65
2021/10/05 07:45:00;;;;;;;6.32;3.25;;;15.30;90.50;;;;;;4908230;29;20040;-65
2021/10/05 07:47:26;;;;;;;5.72;3.05;;;15.30;90.60;;;;;;4897208;29;20036;-64
2021/10/05 07:49:52;;;;;;;5.95;3.22;;;15.40;90.50;;;;;;4908102;29;20037;-64
2021/10/05 07:52:18;;;;;;;5.93;3.05;;;15.40;90.40;;;;;;4905729;29;20037;-64
2021/10/05 07:54:44;;;;;;;8.13;4.20;;;15.50;90.40;;;;;;4910437;29;20776;-64
2021/10/05 07:57:10;;;;;;;6.43;4.28;;;15.40;90.40;;;;;;4908228;29;20044;-65
2021/10/05 07:59:37;;;;;;;7.07;3.88;;;15.40;90.30;;;;;;4896461;29;20477;-68
2021/10/05 08:02:03;;;;;;;6.05;3.72;;;15.40;90.40;;;;;;4906415;29;20104;-67
2021/10/05 08:04:28;;;;;;;8.60;4.78;;;15.50;90.30;;;;;;4899860;29;20035;-67
2021/10/05 08:06:55;;;;;;;8.18;4.70;;;15.50;90.40;;;;;;4901596;29;20512;-67
2021/10/05 08:09:20;;;;;;;10.02;5.28;;;15.50;90.40;;;;;;4907322;29;20039;-67
2021/10/05 08:11:46;;;;;;;6.50;4.18;;;15.50;90.50;;;;;;4907582;29;20095;-66
2021/10/05 08:14:12;;;;;;;7.18;4.55;;;15.50;90.50;;;;;;4908734;29;20147;-67
2021/10/05 08:16:37;;;;;;;10.90;4.53;;;15.50;90.60;;;;;;4902952;29;20041;-67
2021/10/05 08:19:04;;;;;;;7.65;5.00;;;15.50;90.40;;;;;;4904332;29;20079;-67
2021/10/05 08:21:30;;;;;;;8.13;4.07;;;15.50;90.20;;;;;;4913068;29;20489;-68
2021/10/05 08:23:58;;;;;;;6.22;3.60;;;15.50;90.30;;;;;;4909082;29;20048;-67
2021/10/05 08:26:24;;;;;;;6.97;3.55;;;15.40;90.50;;;;;;4906083;29;20111;-64
2021/10/05 08:28:50;;;;;;;5.70;3.58;;;15.40;90.70;;;;;;4898614;29;20072;-64
2021/10/05 08:31:19;;;;;;;4.70;3.45;;;15.40;90.90;;;;;;4899302;29;20559;-67
2021/10/05 08:33:47;;;;;;;7.05;3.72;;;15.40;90.90;;;;;;4907705;29;20043;-66
2021/10/05 08:36:13;;;;;;;7.30;3.55;;;15.40;91.00;;;;;;4900569;29;20546;-66
2021/10/05 08:38:42;;;;;;;6.50;3.63;;;15.30;91.40;;;;;;4926508;29;20043;-65
2021/10/05 08:41:08;;;;;;;6.32;4.25;;;15.30;91.20;;;;;;4915761;29;20040;-65
2021/10/05 08:43:34;;;;;;;7.93;4.22;;;15.30;91.20;;;;;;4898080;29;20047;-65
2021/10/05 08:46:01;;;;;;;11.23;4.95;;;15.40;91.30;;;;;;4913928;29;20039;-65
2021/10/05 08:48:35;;;;;;;8.68;5.70;;;15.40;91.30;;;;;;4909699;29;20079;-65
2021/10/05 08:51:03;;;;;;;8.35;5.55;;;15.30;91.40;;;;;;4905076;29;20114;-65
2021/10/05 08:53:30;;;;;;;7.75;5.85;;;15.40;91.20;;;;;;4902882;29;20088;-66
2021/10/05 08:55:57;;;;;;;9.13;5.78;;;15.30;91.20;;;;;;4922363;29;20031;-66
2021/10/05 08:58:23;;;;;;;8.38;5.75;;;15.30;91.20;;;;;;4904729;29;20048;-65
2021/10/05 09:00:49;;;;;;;8.27;5.30;;;15.30;91.20;;;;;;4912768;29;20044;-66
2021/10/05 09:03:24;;;;;;;5.70;4.75;;;15.40;91.00;;;;;;4908975;29;20140;-65
2021/10/05 09:05:51;;;;;;;10.35;6.25;;;15.40;91.20;;;;;;4913831;29;20075;-66
2021/10/05 09:08:26;;;;;;;7.63;6.13;;;15.40;91.30;;;;;;4903258;29;20146;-66
2021/10/05 09:11:02;;;;;;;7.60;5.70;;;15.30;91.30;;;;;;4895490;29;20039;-66
2021/10/05 09:13:35;;;;;;;10.32;6.35;;;15.30;91.50;;;;;;4905049;29;20075;-66
2021/10/05 09:16:01;;;;;;;8.02;5.78;;;15.30;91.60;;;;;;4908529;29;20803;-66
2021/10/05 09:18:27;;;;;;;8.98;5.90;;;15.30;91.70;;;;;;4900715;29;20058;-65
2021/10/05 09:20:52;;;;;;;11.70;6.35;;;15.40;91.80;;;;;;4897568;29;20781;-66
2021/10/05 09:23:18;;;;;;;12.60;6.97;;;15.40;91.70;;;;;;4903869;29;20040;-65
2021/10/05 09:25:47;;;;;;;9.23;5.70;;;15.40;91.70;;;;;;4904689;29;20055;-65
2021/10/05 09:28:22;;;;;;;7.72;5.22;;;15.40;91.70;;;;;;4922627;28;20509;-66
2021/10/05 09:31:06;;;;;;;6.25;4.43;;;15.50;91.60;;;;;;4908209;29;20036;-66
2021/10/05 09:33:33;;;;;;;5.63;4.47;;;15.50;91.60;;;;;;4898824;29;20060;-66
2021/10/05 09:35:59;;;;;;;6.60;4.55;;;15.50;91.40;;;;;;4902871;29;20520;-66
2021/10/05 09:38:27;;;;;;;7.15;4.40;;;15.50;91.50;;;;;;4931343;28;20040;-65
2021/10/05 09:41:04;;;;;;;7.47;4.70;;;15.40;91.60;;;;;;4910935;29;20516;-66
2021/10/05 09:43:30;;;;;;;6.22;4.68;;;15.40;91.60;;;;;;4900986;29;20075;-66
2021/10/05 09:46:14;;;;;;;6.18;4.63;;;15.50;91.60;;;;;;4898713;29;20051;-66
2021/10/05 09:48:41;;;;;;;5.75;4.57;;;15.50;91.60;;;;;;4903130;29;20083;-66
2021/10/05 09:51:16;;;;;;;6.32;4.10;;;15.50;91.60;;;;;;4894269;29;20028;-66
2021/10/05 09:53:42;;;;;;;5.95;4.25;;;15.50;91.50;;;;;;4914154;29;20039;-66
2021/10/05 09:56:12;;;;;;;5.03;3.75;;;15.50;91.60;;;;;;4903688;29;20043;-66
2021/10/05 09:58:38;;;;;;;5.20;4.40;;;15.60;91.50;;;;;;4902089;29;20103;-66
2021/10/05 10:01:05;;;;;;;6.07;4.32;;;15.60;91.50;;;;;;4909813;29;20038;-66
2021/10/05 10:03:32;;;;;;;8.40;3.88;;;15.60;91.30;;;;;;4918210;29;20410;-66
2021/10/05 10:05:59;;;;;;;5.43;4.53;;;15.60;91.50;;;;;;4902666;29;20048;-66
2021/10/05 10:08:25;;;;;;;5.85;4.40;;;15.60;91.40;;;;;;4905905;29;20044;-66
2021/10/05 10:10:54;;;;;;;9.25;6.03;;;15.70;91.40;;;;;;4908544;29;20029;-66
2021/10/05 10:13:20;;;;;;;5.53;4.20;;;15.70;91.50;;;;;;4898419;29;20084;-66
2021/10/05 10:15:48;;;;;;;4.85;3.78;;;15.80;91.50;;;;;;4905814;29;20518;-66
2021/10/05 10:18:17;;;;;;;8.80;4.68;;;15.80;91.50;;;;;;4903633;29;20444;-66
2021/10/05 10:21:08;;;;;;;5.45;3.92;;;15.80;91.70;;;;;;4907389;29;20043;-66
2021/10/05 10:23:36;;;;;;;7.63;4.72;;;15.80;91.60;;;;;;4897441;29;20714;-66
2021/10/05 10:26:19;;;;;;;5.05;4.22;;;15.80;91.50;;;;;;4894178;29;20048;-66
2021/10/05 10:28:47;;;;;;;5.40;4.20;;;15.80;91.40;;;;;;4896719;29;20130;-66
2021/10/05 10:31:38;;;;;;;4.53;3.78;;;15.90;91.50;;;;;;4891708;29;20043;-66
2021/10/05 10:34:04;;;;;;;4.15;3.45;;;15.90;91.50;;;;;;4906281;29;20515;-66
2021/10/05 10:36:31;;;;;;;5.85;4.70;;;15.90;91.50;;;;;;4894311;29;20048;-66
2021/10/05 10:39:09;;;;;;;4.78;3.92;;;16.00;91.30;;;;;;4896497;29;20039;-65
2021/10/05 10:41:39;;;;;;;5.03;3.28;;;16.00;91.10;;;;;;4902258;29;20063;-66
2021/10/05 10:44:06;;;;;;;9.20;5.15;;;16.00;91.00;;;;;;4907611;29;20028;-66
2021/10/05 10:46:35;;;;;;;4.10;3.70;;;16.00;91.10;;;;;;4910507;29;20540;-66
2021/10/05 10:49:03;;;;;;;5.38;4.18;;;16.00;91.10;;;;;;4905728;29;20099;-65
2021/10/05 10:51:34;;;;;;;4.75;3.83;;;16.00;91.20;;;;;;4904022;29;20027;-65
2021/10/05 10:54:14;;;;;;;4.68;3.50;;;16.00;91.30;;;;;;4900480;29;20032;-65
2021/10/05 10:56:42;;;;;;;3.97;3.67;;;16.00;91.40;;;;;;4910648;29;20043;-66
2021/10/05 10:59:10;;;;;;;4.15;3.38;;;16.00;91.30;;;;;;4898609;29;20071;-64
2021/10/05 11:01:52;;;;;;;3.90;3.50;;;16.00;91.20;;;;;;4904408;29;20060;-65
2021/10/05 11:04:18;;;;;;;4.55;3.33;;;16.10;91.40;;;;;;4916857;29;20059;-65
2021/10/05 11:06:51;;;;;;;4.53;3.67;;;16.10;91.40;;;;;;4893356;29;20047;-65
2021/10/05 11:09:17;;;;;;;5.80;4.20;;;16.00;91.40;;;;;;4900177;29;20040;-65
2021/10/05 11:11:45;;;;;;;4.53;3.90;;;16.10;91.30;;;;;;4904351;29;20040;-65
2021/10/05 11:14:14;;;;;;;4.93;4.15;;;16.10;91.40;;;;;;4895534;29;20942;-65
2021/10/05 11:16:41;;;;;;;5.13;3.60;;;16.10;91.40;;;;;;4906119;29;20191;-65
2021/10/05 11:19:18;;;;;;;4.55;3.35;;;16.10;91.40;;;;;;4907154;29;20086;-65
2021/10/05 11:21:47;;;;;;;5.15;3.40;;;16.10;91.40;;;;;;4900151;29;20047;-67
2021/10/05 11:24:14;;;;;;;4.88;4.03;;;16.10;91.30;;;;;;4894358;29;20074;-66
2021/10/05 11:26:49;;;;;;;4.88;4.35;;;16.10;91.40;;;;;;4904142;29;20055;-67
2021/10/05 11:29:26;;;;;;;5.38;3.78;;;16.10;91.30;;;;;;4909348;29;20067;-69
2021/10/05 11:32:00;;;;;;;6.60;4.90;;;16.10;91.30;;;;;;4906410;29;20047;-68
2021/10/05 11:34:27;;;;;;;8.07;5.43;;;16.10;91.20;;;;;;4903585;29;20044;-66
2021/10/05 11:36:59;;;;;;;8.25;5.50;;;16.10;91.20;;;;;;4906462;29;20043;-66
2021/10/05 11:39:27;;;;;;;5.90;4.13;;;16.10;91.10;;;;;;4903547;29;20077;-65
2021/10/05 11:41:59;;;;;;;4.43;3.45;;;16.10;91.20;;;;;;4894001;29;20367;-65
2021/10/05 11:44:27;;;;;;;4.40;3.67;;;16.10;91.40;;;;;;4902474;29;20055;-65
2021/10/05 11:46:58;;;;;;;5.30;4.25;;;16.10;91.40;;;;;;4899343;29;20493;-66
2021/10/05 11:49:26;;;;;;;4.85;3.90;;;16.20;91.10;;;;;;4905812;29;20055;-66
2021/10/05 11:51:54;;;;;;;5.97;4.65;;;16.20;91.00;;;;;;4897449;29;20056;-66
2021/10/05 11:54:25;;;;;;;4.22;3.75;;;16.20;90.80;;;;;;4903646;29;20036;-66
2021/10/05 11:56:52;;;;;;;7.10;4.68;;;16.10;91.10;;;;;;4907206;29;20040;-66
2021/10/05 11:59:30;;;;;;;9.48;5.68;;;16.10;91.00;;;;;;4915692;29;20123;-66
2021/10/05 12:02:07;;;;;;;5.50;3.60;;;16.00;91.10;;;;;;4919550;29;20046;-66
2021/10/05 12:04:34;;;;;;;6.22;4.32;;;16.00;91.20;;;;;;4904423;29;20070;-66
2021/10/05 12:07:11;;;;;;;6.10;4.10;;;16.00;91.30;;;;;;4911982;29;20147;-67
2021/10/05 12:09:39;;;;;;;3.90;3.30;;;16.00;91.40;;;;;;4898011;29;20047;-66
2021/10/05 12:12:06;;;;;;;3.20;2.90;;;16.00;91.60;;;;;;4903177;29;20481;-67
2021/10/05 12:14:52;;;;;;;2.90;2.60;;;16.10;91.60;;;;;;4905275;29;20033;-67
2021/10/05 12:17:19;;;;;;;3.55;3.22;;;16.10;91.70;;;;;;4910867;29;20062;-67
2021/10/05 12:19:59;;;;;;;2.50;2.30;;;16.10;91.40;;;;;;4908026;29;20103;-67
2021/10/05 12:22:30;;;;;;;2.88;2.25;;;16.10;91.00;;;;;;4902636;29;20035;-66
2021/10/05 12:25:04;;;;;;;2.25;2.05;;;16.00;90.90;;;;;;4913604;29;20055;-68
2021/10/05 12:27:34;;;;;;;3.17;1.92;;;15.90;91.00;;;;;;4904164;29;20512;-67
2021/10/05 12:30:28;;;;;;;3.85;2.28;;;15.80;91.20;;;;;;4911994;29;20040;-67
2021/10/05 12:32:59;;;;;;;5.35;2.15;;;15.70;91.20;;;;;;4907396;29;20103;-67
2021/10/05 12:35:27;;;;;;;4.82;2.08;;;15.60;91.50;;;;;;4898770;29;20092;-66
2021/10/05 12:37:57;;;;;;;13.32;4.05;;;15.60;91.70;;;;;;4896353;29;20123;-66
2021/10/05 12:40:23;;;;;;;10.18;3.35;;;15.60;91.60;;;;;;4897977;29;20592;-66
2021/10/05 12:42:52;;;;;;;3.47;1.92;;;15.60;91.40;;;;;;4899374;29;20136;-67
2021/10/05 12:45:24;;;;;;;3.33;1.90;;;15.70;91.30;;;;;;4891244;29;20047;-67
2021/10/05 12:47:50;;;;;;;10.95;3.92;;;15.70;91.00;;;;;;4902557;29;20042;-66